Salt Flat, TX (79847)

12:16 PM MDT on May 27, 2015 (GMT -0600)
Guadalupe Pass | | Change Station
CLOSE
Current Station
Airport
Location: Guadalupe Pass,
Elevation: 5453 ft
Nearby Weather Stations

Elev 5453 ft 31.83 °N, 104.81 °W | Updated 25 minutes ago

Clear
Clear
83 °F
Feels Like 83 °F
N
15
Wind Variable Wind from SSW
Gusts 22 mph

Today
High -- | Low -- °F
--% Chance of Precip.
Yesterday
High -- | Low -- °F
Precip. -- in
5:57 AM 7:57 PM
Waxing Gibbous, 69% visible
Pressure 29.92 in
Visibility 10.0 miles
Clouds Clear
Dew Point 36 °F
Humidity 19%
Rainfall 0.00 in
Snow Depth Not available.
UV 13 out of 12
Pollen 5.60 out of 12
Air Quality Not available.
Flu Activity Sporadic
METAR KGDP 271751Z AUTO 20013G19KT 10SM CLR 28/02 A3018 RMK AO2 SLP130 T02830022 10289 20183 58005

More Conditions Fewer Conditions

Pressure 29.92 in
Visibility 10.0 miles
Clouds Clear
Dew Point 36 °F
Humidity 19%
Rainfall 0.00 in
Snow Depth Not available.
UV 13 out of 12
Pollen 5.60 out of 12
Air Quality Not available.
Flu Activity Sporadic
METAR KGDP 271751Z AUTO 20013G19KT 10SM CLR 28/02 A3018 RMK AO2 SLP130 T02830022 10289 20183 58005

More Conditions Fewer Conditions

10-Day Weather Forecast

Almanac

Astronomy

May. 27, 2015 Rise Set
Actual Time
Civil Twilight
Nautical Twilight
Astronomical Twilight
Moon
Length of Visible Light
Length of Day
Tomorrow will be .
, % of the Moon is Illuminated

Today's Extremes

State Highs State Lows

Community

WunderPhotos

Upload Photos

1,824,744 photos uploaded!

WunderBlogs® & News

Nearby

Air Quality

  Air Quality AQ Index Pollutant
Not available.

Snow Depth

Station Depth Elevation

Earthquake Activity

City Distance Mag. Time & Date
Minimum magnitude displayed is 2.5.

Coastal Water Temperatures

Place Temperature

Stations

Nearby Weather Stations

Station Location Temp. Windchill Dew Point Humidity Wind Precip. Elev Updated Type